createdAt,value
2023-04-13T00:00:55.786Z,31.47
2023-04-13T00:03:24.277Z,36.57
2023-04-13T00:05:53.797Z,34.60
2023-04-13T00:08:23.022Z,32.93
2023-04-13T00:10:51.436Z,34.03
2023-04-13T00:13:19.715Z,34.33
2023-04-13T00:15:47.726Z,28.60
2023-04-13T00:18:17.136Z,33.67
2023-04-13T00:20:46.571Z,34.57
2023-04-13T00:23:14.562Z,32.70
2023-04-13T00:25:42.665Z,36.10
2023-04-13T00:28:10.620Z,36.23
2023-04-13T00:30:38.744Z,29.43
2023-04-13T00:33:06.870Z,22.33
2023-04-13T00:35:36.371Z,23.20
2023-04-13T00:38:04.510Z,21.90
2023-04-13T00:40:32.760Z,23.93
2023-04-13T00:43:02.341Z,21.53
2023-04-13T00:45:31.185Z,22.40
2023-04-13T00:48:00.407Z,19.97
2023-04-13T00:50:28.578Z,20.53
2023-04-13T00:52:58.217Z,19.83
2023-04-13T00:55:27.722Z,17.93
2023-04-13T00:57:55.799Z,18.43
2023-04-13T01:00:25.649Z,20.63
2023-04-13T01:02:54.944Z,18.67
2023-04-13T01:05:25.500Z,16.03
2023-04-13T01:08:08.955Z,18.93
2023-04-13T01:10:44.022Z,21.30
2023-04-13T01:13:20.547Z,20.20
2023-04-13T01:15:56.150Z,18.90
2023-04-13T01:18:25.399Z,21.90
2023-04-13T01:20:55.074Z,20.77
2023-04-13T01:23:32.209Z,19.07
2023-04-13T01:26:04.144Z,21.10
2023-04-13T01:28:35.295Z,26.97
2023-04-13T01:31:05.792Z,19.20
2023-04-13T01:33:34.489Z,20.20
2023-04-13T01:36:03.219Z,21.23
2023-04-13T01:38:31.264Z,20.73
2023-04-13T01:40:59.291Z,20.10
2023-04-13T01:43:28.711Z,19.77
2023-04-13T01:46:04.136Z,20.93
2023-04-13T01:48:38.521Z,20.13
2023-04-13T01:51:11.416Z,19.83
2023-04-13T01:53:43.741Z,19.57
2023-04-13T01:56:13.907Z,18.40
2023-04-13T01:58:42.714Z,22.00
2023-04-13T02:01:12.829Z,22.37
2023-04-13T02:03:43.276Z,21.43
2023-04-13T02:06:12.029Z,22.53
2023-04-13T02:08:40.294Z,21.90
2023-04-13T02:11:08.869Z,21.17
2023-04-13T02:13:36.906Z,21.10
2023-04-13T02:16:06.715Z,20.60
2023-04-13T02:18:36.154Z,21.87
2023-04-13T02:21:09.179Z,22.80
2023-04-13T02:23:38.097Z,22.67
2023-04-13T02:26:08.353Z,23.13
2023-04-13T02:28:36.388Z,21.10
2023-04-13T02:31:05.829Z,21.70
2023-04-13T02:33:36.451Z,20.87
2023-04-13T02:36:05.441Z,20.03
2023-04-13T02:38:34.149Z,20.47
2023-04-13T02:41:02.595Z,19.80
2023-04-13T02:43:30.787Z,29.57
2023-04-13T02:45:59.562Z,20.00
2023-04-13T02:48:28.330Z,25.97
2023-04-13T02:50:57.698Z,25.80
2023-04-13T02:53:25.986Z,25.13
2023-04-13T02:55:55.398Z,18.03
2023-04-13T02:58:23.816Z,23.57
2023-04-13T03:00:51.973Z,23.93
2023-04-13T03:03:20.679Z,20.37
2023-04-13T03:05:50.320Z,21.40
2023-04-13T03:08:19.823Z,18.90
2023-04-13T03:10:47.780Z,18.57
2023-04-13T03:13:16.030Z,15.87
2023-04-13T03:15:44.022Z,16.83
2023-04-13T03:18:12.035Z,14.60
2023-04-13T03:20:40.043Z,18.13
2023-04-13T03:23:07.989Z,16.10
2023-04-13T03:25:37.329Z,23.17
2023-04-13T03:28:05.580Z,24.07
2023-04-13T03:30:33.638Z,23.43
2023-04-13T03:33:02.448Z,24.53
2023-04-13T03:35:30.608Z,20.73
2023-04-13T03:37:58.615Z,20.87
2023-04-13T03:40:26.610Z,19.07
2023-04-13T03:42:55.920Z,18.53
2023-04-13T03:45:23.915Z,20.03
2023-04-13T03:47:52.333Z,17.13
2023-04-13T03:50:20.999Z,21.33
2023-04-13T03:52:49.053Z,23.83
2023-04-13T03:55:18.241Z,19.40
2023-04-13T03:57:46.444Z,19.63
2023-04-13T04:00:17.252Z,20.57
2023-04-13T04:02:45.617Z,20.50
2023-04-13T04:05:13.892Z,21.40
2023-04-13T04:07:41.887Z,19.60
2023-04-13T04:10:10.679Z,21.37
2023-04-13T04:12:38.661Z,21.20
2023-04-13T04:15:07.809Z,18.87
2023-04-13T04:17:39.386Z,19.93
2023-04-13T04:20:10.641Z,17.93
2023-04-13T04:22:38.796Z,19.57
2023-04-13T04:25:07.599Z,14.67
2023-04-13T04:27:38.166Z,15.13
2023-04-13T04:30:08.830Z,16.43
2023-04-13T04:32:38.237Z,17.63
2023-04-13T04:35:07.242Z,18.43
2023-04-13T04:37:37.706Z,25.17
2023-04-13T04:40:09.277Z,16.20
2023-04-13T04:42:38.231Z,21.10
2023-04-13T04:45:07.176Z,19.90
2023-04-13T04:47:42.006Z,19.17
2023-04-13T04:50:12.919Z,19.43
2023-04-13T04:52:41.547Z,25.17
2023-04-13T04:55:10.335Z,26.23
2023-04-13T04:57:38.350Z,28.00
2023-04-13T05:00:10.733Z,28.37
2023-04-13T05:02:38.817Z,26.27
2023-04-13T05:05:09.080Z,25.33
2023-04-13T05:07:38.842Z,27.53
2023-04-13T05:10:09.186Z,25.97
2023-04-13T05:12:37.756Z,25.57
2023-04-13T05:15:07.516Z,27.77
2023-04-13T05:17:36.356Z,25.53
2023-04-13T05:20:06.738Z,17.27
2023-04-13T05:22:34.917Z,19.23
2023-04-13T05:25:04.682Z,21.00
2023-04-13T05:27:32.664Z,22.67
2023-04-13T05:30:00.659Z,25.03
2023-04-13T05:32:28.779Z,20.63
2023-04-13T05:34:56.836Z,21.50
2023-04-13T05:37:25.002Z,32.37
2023-04-13T05:39:53.531Z,26.40
2023-04-13T05:42:24.033Z,30.67
2023-04-13T05:44:52.204Z,36.77
2023-04-13T05:47:22.766Z,37.87
2023-04-13T05:49:52.313Z,38.93
2023-04-13T05:52:21.349Z,38.50
2023-04-13T05:54:50.066Z,41.07
2023-04-13T05:57:20.898Z,39.43
2023-04-13T05:59:51.788Z,38.50
2023-04-13T06:02:20.709Z,36.47
2023-04-13T06:04:48.998Z,36.33
2023-04-13T06:07:17.785Z,29.60
2023-04-13T06:09:45.965Z,42.33
2023-04-13T06:12:15.719Z,30.83
2023-04-13T06:14:44.123Z,30.63
2023-04-13T06:17:13.520Z,41.53
2023-04-13T06:19:41.685Z,35.20
2023-04-13T06:22:09.748Z,42.60
2023-04-13T06:24:37.886Z,37.67
2023-04-13T06:27:05.918Z,39.67
2023-04-13T06:29:34.241Z,36.93
2023-04-13T06:32:02.308Z,38.77
2023-04-13T06:34:31.732Z,42.43
2023-04-13T06:36:59.676Z,37.23
2023-04-13T06:39:28.810Z,35.70
2023-04-13T06:41:57.740Z,34.53
2023-04-13T06:44:26.987Z,32.87
2023-04-13T06:46:55.306Z,36.50
2023-04-13T06:49:23.439Z,36.33
2023-04-13T06:51:52.760Z,52.27
2023-04-13T06:54:20.969Z,38.67
2023-04-13T06:56:48.962Z,45.80
2023-04-13T06:59:16.976Z,44.90
2023-04-13T07:01:45.036Z,39.47
2023-04-13T07:04:13.147Z,39.73
2023-04-13T07:06:41.529Z,46.80
2023-04-13T07:09:10.992Z,46.77
2023-04-13T07:11:38.985Z,45.63
2023-04-13T07:14:06.992Z,53.50
2023-04-13T07:16:35.143Z,47.13
2023-04-13T07:19:03.233Z,46.53
2023-04-13T07:21:31.923Z,46.83
2023-04-13T07:23:59.912Z,50.13
2023-04-13T07:26:29.329Z,46.13
2023-04-13T07:28:57.465Z,55.10
2023-04-13T07:31:25.540Z,53.35
2023-04-13T07:33:54.356Z,51.70
2023-04-13T07:36:23.474Z,51.57
2023-04-13T07:38:51.731Z,54.63
2023-04-13T07:41:22.472Z,54.57
2023-04-13T07:43:52.228Z,60.07
2023-04-13T07:46:26.345Z,57.35
2023-04-13T07:48:55.056Z,55.65
2023-04-13T07:51:23.470Z,59.73
2023-04-13T07:53:53.624Z,58.65
2023-04-13T07:56:22.618Z,58.23
2023-04-13T07:58:51.959Z,61.65
2023-04-13T08:01:21.435Z,63.28
2023-04-13T08:03:49.497Z,67.70
2023-04-13T08:06:20.936Z,70.97
2023-04-13T08:08:48.975Z,74.78
2023-04-13T08:11:17.232Z,72.00
2023-04-13T08:13:45.325Z,79.20
2023-04-13T08:16:14.663Z,75.20
2023-04-13T08:18:42.751Z,80.22
2023-04-13T08:21:12.099Z,78.88
2023-04-13T08:23:42.141Z,72.07
2023-04-13T08:26:18.024Z,72.97
2023-04-13T08:28:46.218Z,75.37
2023-04-13T08:31:17.375Z,74.57
2023-04-13T08:33:45.323Z,78.07
2023-04-13T08:36:13.303Z,70.50
2023-04-13T08:38:41.263Z,73.78
2023-04-13T08:41:11.237Z,69.38
2023-04-13T08:43:40.425Z,74.78
2023-04-13T08:46:08.726Z,84.07
2023-04-13T08:48:53.458Z,81.40
2023-04-13T08:51:23.778Z,81.18
2023-04-13T08:53:54.770Z,87.78
2023-04-13T08:56:30.923Z,98.43
2023-04-13T08:59:07.526Z,100.78
2023-04-13T09:01:38.690Z,101.10
2023-04-13T09:04:11.163Z,99.18
2023-04-13T09:06:41.943Z,94.03
2023-04-13T09:09:13.859Z,92.75
2023-04-13T09:11:42.213Z,101.65
2023-04-13T09:14:10.198Z,107.70
2023-04-13T09:16:43.729Z,102.65
2023-04-13T09:19:13.900Z,102.90
2023-04-13T09:21:43.288Z,99.10
2023-04-13T09:24:12.499Z,103.40
2023-04-13T09:26:44.712Z,100.93
2023-04-13T09:29:16.403Z,95.70
2023-04-13T09:31:45.871Z,106.85
2023-04-13T09:34:15.882Z,105.50
2023-04-13T09:36:54.113Z,94.03
2023-04-13T09:39:27.917Z,95.80
2023-04-13T09:41:56.688Z,91.95
2023-04-13T09:44:27.470Z,86.60
2023-04-13T09:46:59.510Z,87.55
2023-04-13T09:49:38.288Z,85.25
2023-04-13T09:52:07.453Z,87.38
2023-04-13T09:54:35.874Z,91.25
2023-04-13T09:57:04.888Z,98.75
2023-04-13T09:59:34.038Z,97.68
2023-04-13T10:02:05.284Z,100.07
2023-04-13T10:04:36.610Z,94.50
2023-04-13T10:07:06.768Z,89.88
2023-04-13T10:09:34.752Z,84.03
2023-04-13T10:12:03.406Z,94.93
2023-04-13T10:14:36.918Z,85.95
2023-04-13T10:17:19.597Z,75.15
2023-04-13T10:19:52.251Z,76.72
2023-04-13T10:22:22.829Z,68.78
2023-04-13T10:24:52.806Z,71.60
2023-04-13T10:27:22.620Z,59.17
2023-04-13T10:29:51.082Z,66.47
2023-04-13T10:32:23.422Z,58.25
2023-04-13T10:34:53.469Z,61.55
2023-04-13T10:37:23.393Z,60.25
2023-04-13T10:40:05.626Z,65.43
2023-04-13T10:42:51.837Z,68.85
2023-04-13T10:45:23.959Z,63.00
2023-04-13T10:47:52.923Z,75.70
2023-04-13T10:50:23.447Z,66.53
2023-04-13T10:53:03.034Z,67.43
2023-04-13T10:55:31.626Z,75.43
2023-04-13T10:58:01.163Z,80.78
2023-04-13T11:00:44.794Z,93.40
2023-04-13T11:03:16.775Z,89.78
2023-04-13T11:05:47.430Z,83.88
2023-04-13T11:08:20.894Z,96.38
2023-04-13T11:10:53.451Z,103.63
2023-04-13T11:13:22.218Z,122.72
2023-04-13T11:15:51.823Z,125.68
2023-04-13T11:18:26.679Z,131.25
2023-04-13T11:20:56.361Z,147.32
2023-04-13T11:23:24.725Z,174.43
2023-04-13T11:25:58.114Z,198.60
2023-04-13T11:28:36.709Z,178.27
2023-04-13T11:31:06.292Z,175.35
2023-04-13T11:33:34.592Z,178.75
2023-04-13T11:36:04.067Z,166.48
2023-04-13T11:38:32.617Z,176.88
2023-04-13T11:41:15.851Z,188.75
2023-04-13T11:43:48.395Z,195.45
2023-04-13T11:46:25.024Z,183.98
2023-04-13T11:48:54.016Z,189.55
2023-04-13T11:51:24.125Z,203.35
2023-04-13T11:53:53.100Z,213.73
2023-04-13T11:56:21.213Z,208.68
2023-04-13T11:58:53.095Z,233.43
2023-04-13T12:01:26.217Z,223.88
2023-04-13T12:04:13.937Z,246.18
2023-04-13T12:06:46.725Z,245.80
2023-04-13T12:09:17.776Z,256.65
2023-04-13T12:11:50.213Z,272.13
2023-04-13T12:19:27.648Z,260.67
2023-04-13T12:21:58.089Z,239.10
2023-04-13T12:24:37.760Z,230.50
2023-04-13T12:29:39.207Z,216.57
2023-04-13T12:32:14.291Z,223.75
2023-04-13T12:34:43.052Z,219.82
2023-04-13T12:37:12.516Z,231.32
2023-04-13T12:39:40.596Z,243.27
2023-04-13T12:42:08.682Z,274.50
2023-04-13T12:44:36.711Z,273.45
2023-04-13T12:47:06.215Z,256.77
2023-04-13T12:49:34.307Z,269.58
2023-04-13T12:52:02.296Z,262.95
2023-04-13T12:54:31.805Z,239.85
2023-04-13T12:57:00.333Z,242.95
2023-04-13T12:59:28.304Z,239.43
2023-04-13T13:01:56.298Z,243.48
2023-04-13T13:04:24.416Z,235.77
2023-04-13T13:06:52.467Z,238.15
2023-04-13T13:09:20.747Z,248.93
2023-04-13T13:11:50.221Z,260.60
2023-04-13T13:14:20.244Z,263.75
2023-04-13T13:16:50.026Z,285.92
2023-04-13T13:19:18.064Z,260.35
2023-04-13T13:21:46.022Z,274.65
2023-04-13T13:24:14.035Z,286.63
2023-04-13T13:27:05.837Z,283.92
2023-04-13T13:29:33.292Z,301.95
2023-04-13T13:32:01.426Z,305.95
2023-04-13T13:34:29.444Z,320.83
2023-04-13T13:36:57.757Z,316.88
2023-04-13T13:39:27.235Z,316.13
2023-04-13T13:41:55.240Z,285.77
2023-04-13T13:44:23.284Z,272.40
2023-04-13T13:46:52.691Z,262.77
2023-04-13T13:49:20.684Z,261.92
2023-04-13T13:51:48.859Z,255.48
2023-04-13T13:54:16.786Z,241.30
2023-04-13T13:56:44.760Z,242.73
2023-04-13T13:59:12.809Z,221.43
2023-04-13T14:01:40.942Z,215.43
2023-04-13T14:04:10.644Z,225.85
2023-04-13T14:06:38.616Z,226.07
2023-04-13T14:09:06.881Z,242.15
2023-04-13T14:11:36.160Z,236.15
2023-04-13T14:14:18.388Z,227.70
2023-04-13T14:16:49.577Z,220.57
2023-04-13T14:19:20.669Z,219.73
2023-04-13T14:21:50.549Z,236.93
2023-04-13T14:24:18.509Z,230.90
2023-04-13T14:26:46.476Z,233.65
2023-04-13T14:29:14.519Z,207.02
2023-04-13T14:31:42.719Z,203.68
2023-04-13T14:34:11.068Z,203.82
2023-04-13T14:36:40.436Z,182.93
2023-04-13T14:39:08.712Z,174.65
2023-04-13T14:41:36.955Z,196.52
2023-04-13T14:44:04.930Z,182.13
2023-04-13T14:46:32.974Z,178.43
2023-04-13T14:49:01.137Z,193.85
2023-04-13T14:51:29.914Z,255.95
2023-04-13T14:53:59.340Z,319.85
2023-04-13T14:56:27.451Z,363.75
2023-04-13T14:58:55.397Z,418.42
2023-04-13T15:01:24.816Z,437.25
2023-04-13T15:03:54.553Z,432.67
2023-04-13T15:06:22.742Z,424.48
2023-04-13T15:08:50.969Z,419.10
2023-04-13T15:11:20.279Z,382.95
2023-04-13T15:13:48.233Z,333.20
2023-04-13T15:16:16.404Z,312.05
2023-04-13T15:18:44.403Z,282.55
2023-04-13T15:21:12.385Z,270.52
2023-04-13T15:23:40.386Z,251.25
2023-04-13T15:26:08.353Z,243.70
2023-04-13T15:28:39.014Z,231.95
2023-04-13T15:31:06.972Z,217.95
2023-04-13T15:33:34.935Z,200.73
2023-04-13T15:36:03.166Z,202.30
2023-04-13T15:38:31.319Z,193.93
2023-04-13T15:40:59.287Z,183.55
2023-04-13T15:43:27.497Z,180.38
2023-04-13T15:45:56.920Z,160.70
2023-04-13T15:48:24.909Z,155.85
2023-04-13T15:50:59.103Z,147.90
2023-04-13T15:53:27.290Z,137.32
2023-04-13T15:55:55.392Z,143.02
2023-04-13T15:58:23.493Z,125.65
2023-04-13T16:01:03.582Z,129.45
2023-04-13T16:03:32.686Z,133.27
2023-04-13T16:06:01.396Z,121.03
2023-04-13T16:08:30.367Z,129.95
2023-04-13T16:10:58.412Z,129.32
2023-04-13T16:13:32.287Z,124.35
2023-04-13T16:16:14.449Z,130.85
2023-04-13T16:18:43.547Z,114.90
2023-04-13T16:21:12.464Z,127.15
2023-04-13T16:23:43.296Z,119.93
2023-04-13T16:26:14.403Z,120.32
2023-04-13T16:28:42.519Z,116.85
2023-04-13T16:31:12.150Z,118.68
2023-04-13T16:33:40.141Z,106.53
2023-04-13T16:36:08.969Z,100.00
2023-04-13T16:38:36.944Z,96.03
2023-04-13T16:41:04.938Z,104.32
2023-04-13T16:43:32.887Z,99.28
2023-04-13T16:46:01.043Z,82.15
2023-04-13T16:48:34.875Z,82.53
2023-04-13T16:51:05.057Z,78.10
2023-04-13T16:53:33.911Z,81.70
2023-04-13T16:56:02.852Z,85.63
2023-04-13T16:58:31.815Z,84.53
2023-04-13T17:01:00.713Z,82.97
2023-04-13T17:03:29.649Z,89.03
2023-04-13T17:05:59.989Z,96.32
2023-04-13T17:08:28.924Z,89.50
2023-04-13T17:10:58.712Z,88.72
2023-04-13T17:13:27.665Z,85.65
2023-04-13T17:15:56.464Z,80.07
2023-04-13T17:18:25.303Z,76.68
2023-04-13T17:20:58.488Z,77.78
2023-04-13T17:23:27.433Z,70.25
2023-04-13T17:25:57.008Z,68.63
2023-04-13T17:28:26.062Z,64.47
2023-04-13T17:30:54.986Z,68.20
2023-04-13T17:33:24.969Z,67.28
2023-04-13T17:35:55.381Z,54.85
2023-04-13T17:38:25.961Z,53.25
2023-04-13T17:40:54.863Z,48.75
2023-04-13T17:43:23.800Z,48.20
2023-04-13T17:45:52.858Z,5.75
2023-04-13T17:48:22.241Z,22.05
2023-04-13T17:50:51.837Z,42.65
2023-04-13T17:53:20.820Z,41.53
2023-04-13T17:55:51.201Z,40.50
2023-04-13T17:58:20.134Z,31.10
2023-04-13T18:00:49.189Z,33.45
2023-04-13T18:03:18.261Z,36.03
2023-04-13T18:05:47.538Z,36.38
2023-04-13T18:08:16.837Z,40.05
2023-04-13T18:10:46.322Z,34.30
2023-04-13T18:13:17.052Z,38.17
2023-04-13T18:15:48.310Z,38.70
2023-04-13T18:18:17.678Z,39.83
2023-04-13T18:20:46.771Z,33.97
2023-04-13T18:23:14.737Z,31.40
2023-04-13T18:25:42.704Z,37.03
2023-04-13T18:28:11.070Z,34.97
2023-04-13T18:30:40.454Z,31.00
2023-04-13T18:33:08.939Z,11.80
2023-04-13T18:35:41.658Z,15.07
2023-04-13T18:38:09.835Z,14.30
2023-04-13T18:40:37.986Z,10.88
2023-04-13T18:43:06.002Z,13.87
2023-04-13T18:45:34.035Z,11.53
2023-04-13T18:48:04.093Z,11.40
2023-04-13T18:50:32.076Z,17.45
2023-04-13T18:53:00.016Z,19.80
2023-04-13T18:55:29.417Z,21.85
2023-04-13T18:57:57.454Z,21.27
2023-04-13T19:00:25.835Z,17.47
2023-04-13T19:02:53.943Z,17.60
2023-04-13T19:05:23.854Z,28.48
2023-04-13T19:07:58.657Z,16.85
2023-04-13T19:10:27.982Z,16.60
2023-04-13T19:12:56.669Z,25.60
2023-04-13T19:15:24.976Z,30.20
2023-04-13T19:17:53.355Z,28.03
2023-04-13T19:20:25.198Z,30.43
2023-04-13T19:22:53.273Z,30.07
2023-04-13T19:25:21.430Z,34.80
2023-04-13T19:27:50.277Z,35.65
2023-04-13T19:30:19.915Z,33.90
2023-04-13T19:32:49.943Z,31.80
2023-04-13T19:35:18.351Z,37.15
2023-04-13T19:37:47.676Z,34.60
2023-04-13T19:40:15.724Z,34.90
2023-04-13T19:42:45.172Z,34.07
2023-04-13T19:45:16.500Z,35.80
2023-04-13T19:47:44.617Z,34.23
2023-04-13T19:50:14.084Z,33.57
2023-04-13T19:52:43.105Z,31.50
2023-04-13T19:55:12.454Z,31.20
2023-04-13T19:57:44.376Z,32.40
2023-04-13T20:00:19.130Z,32.53
2023-04-13T20:02:49.565Z,33.23
2023-04-13T20:05:19.451Z,37.97
2023-04-13T20:07:47.581Z,34.33
2023-04-13T20:10:17.413Z,32.73
2023-04-13T20:12:45.612Z,32.23
2023-04-13T20:15:13.592Z,34.87
2023-04-13T20:17:41.882Z,32.83
2023-04-13T20:20:10.877Z,30.47
2023-04-13T20:22:39.432Z,30.63
2023-04-13T20:25:09.172Z,32.77
2023-04-13T20:27:43.010Z,30.43
2023-04-13T20:30:11.882Z,28.03
2023-04-13T20:32:40.064Z,28.63
2023-04-13T20:35:09.149Z,31.60
2023-04-13T20:37:37.233Z,32.23
2023-04-13T20:40:07.100Z,31.43
2023-04-13T20:42:35.212Z,31.03
2023-04-13T20:45:05.993Z,31.23
2023-04-13T20:47:35.945Z,28.80
2023-04-13T20:50:04.829Z,33.17
2023-04-13T20:52:32.934Z,23.27
2023-04-13T20:55:00.952Z,26.83
2023-04-13T20:57:28.946Z,20.60
2023-04-13T20:59:56.994Z,23.27
2023-04-13T21:02:26.668Z,22.17
2023-04-13T21:04:56.536Z,21.30
2023-04-13T21:07:24.558Z,25.13
2023-04-13T21:09:52.763Z,24.17
2023-04-13T21:12:20.772Z,21.63
2023-04-13T21:14:49.205Z,23.63
2023-04-13T21:17:17.167Z,20.73
2023-04-13T21:19:46.507Z,25.20
2023-04-13T21:22:15.824Z,23.07
2023-04-13T21:24:43.916Z,33.60
2023-04-13T21:27:11.952Z,32.50
2023-04-13T21:29:39.971Z,36.10
2023-04-13T21:32:08.007Z,34.33
2023-04-13T21:34:36.073Z,25.70
2023-04-13T21:37:05.724Z,20.83
2023-04-13T21:39:34.899Z,23.23
2023-04-13T21:42:04.849Z,23.93
2023-04-13T21:44:32.979Z,22.07
2023-04-13T21:47:01.102Z,28.60
2023-04-13T21:49:29.378Z,27.80
2023-04-13T21:51:57.337Z,30.60
2023-04-13T21:54:26.698Z,33.20
2023-04-13T21:56:54.964Z,34.07
2023-04-13T21:59:30.499Z,33.03
2023-04-13T22:01:58.736Z,27.17
2023-04-13T22:04:26.978Z,27.63
2023-04-13T22:06:55.846Z,30.00
2023-04-13T22:09:23.904Z,28.40
2023-04-13T22:11:53.268Z,27.77
2023-04-13T22:14:24.049Z,24.97
2023-04-13T22:16:53.097Z,30.93
2023-04-13T22:19:21.132Z,24.60
2023-04-13T22:21:49.066Z,22.67
2023-04-13T22:24:17.097Z,22.90
2023-04-13T22:26:45.063Z,23.37
2023-04-13T22:29:14.443Z,23.80
2023-04-13T22:31:42.470Z,27.83
2023-04-13T22:34:10.493Z,28.67
2023-04-13T22:36:38.497Z,29.17
2023-04-13T22:39:06.785Z,29.37
2023-04-13T22:41:34.804Z,28.70
2023-04-13T22:44:02.762Z,24.77
2023-04-13T22:46:32.341Z,28.47
2023-04-13T22:49:00.475Z,27.43
2023-04-13T22:51:31.086Z,24.40
2023-04-13T22:54:00.245Z,28.70
2023-04-13T22:56:28.233Z,29.50
2023-04-13T22:58:56.192Z,26.87
2023-04-13T23:01:24.234Z,28.27
2023-04-13T23:03:53.883Z,29.00
2023-04-13T23:06:22.107Z,29.50
2023-04-13T23:08:50.188Z,28.27
2023-04-13T23:11:18.179Z,26.57
2023-04-13T23:13:46.694Z,25.53
2023-04-13T23:16:14.850Z,30.40
2023-04-13T23:18:42.860Z,34.17
2023-04-13T23:21:13.573Z,31.97
2023-04-13T23:23:41.551Z,30.00
2023-04-13T23:26:09.645Z,29.40
2023-04-13T23:28:37.653Z,29.30
2023-04-13T23:31:06.329Z,30.60
2023-04-13T23:33:34.741Z,30.43
2023-04-13T23:36:03.619Z,29.33
2023-04-13T23:38:33.837Z,30.57
2023-04-13T23:41:01.826Z,30.37
2023-04-13T23:43:30.077Z,33.90
2023-04-13T23:46:00.616Z,29.27
2023-04-13T23:48:28.644Z,28.70
2023-04-13T23:50:59.833Z,30.37
2023-04-13T23:53:27.823Z,31.50
2023-04-13T23:55:57.171Z,26.53
2023-04-13T23:58:25.164Z,26.60
